createdAt,value
2017-11-06T00:00:48.715Z,0.00
2017-11-06T00:01:47.998Z,0.00
2017-11-06T00:02:47.989Z,0.00
2017-11-06T00:03:47.978Z,0.00
2017-11-06T00:04:47.968Z,0.00
2017-11-06T00:05:47.952Z,0.00
2017-11-06T00:06:48.716Z,0.00
2017-11-06T00:07:47.926Z,0.00
2017-11-06T00:08:47.916Z,0.00
2017-11-06T00:09:47.901Z,0.00
2017-11-06T00:10:47.908Z,0.00
2017-11-06T00:11:47.881Z,0.00
2017-11-06T00:12:47.866Z,0.00
2017-11-06T00:13:47.852Z,0.00
2017-11-06T00:14:47.836Z,0.00
2017-11-06T00:15:47.827Z,0.00
2017-11-06T00:16:47.813Z,0.00
2017-11-06T00:17:47.801Z,0.00
2017-11-06T00:18:47.788Z,0.00
2017-11-06T00:19:47.784Z,0.00
2017-11-06T00:20:47.774Z,0.00
2017-11-06T00:21:47.757Z,0.00
2017-11-06T00:22:47.742Z,0.00
2017-11-06T00:23:47.731Z,0.00
2017-11-06T00:24:47.722Z,0.00
2017-11-06T00:25:47.707Z,0.00
2017-11-06T00:26:47.695Z,0.00
2017-11-06T00:27:47.688Z,0.00
2017-11-06T00:28:47.669Z,0.00
2017-11-06T00:29:47.651Z,0.00
2017-11-06T00:30:47.632Z,0.00
2017-11-06T00:31:48.068Z,0.00
2017-11-06T00:32:47.608Z,0.00
2017-11-06T00:33:47.605Z,0.00
2017-11-06T00:34:47.590Z,0.00
2017-11-06T00:35:47.574Z,0.00
2017-11-06T00:36:47.585Z,0.00
2017-11-06T00:37:47.564Z,0.00
2017-11-06T00:38:48.228Z,0.00
2017-11-06T00:39:47.533Z,0.00
2017-11-06T00:40:47.521Z,0.00
2017-11-06T00:41:47.509Z,0.00
2017-11-06T00:42:47.501Z,0.00
2017-11-06T00:43:47.480Z,0.00
2017-11-06T00:44:47.469Z,0.00
2017-11-06T00:45:47.461Z,0.00
2017-11-06T00:46:47.446Z,0.00
2017-11-06T00:47:47.424Z,0.00
2017-11-06T00:48:47.419Z,0.00
2017-11-06T00:49:47.404Z,0.00
2017-11-06T00:50:47.394Z,0.00
2017-11-06T00:51:47.383Z,0.00
2017-11-06T00:52:47.371Z,0.00
2017-11-06T00:53:47.362Z,0.00
2017-11-06T00:54:47.347Z,0.00
2017-11-06T00:55:47.329Z,0.00
2017-11-06T00:56:47.337Z,0.00
2017-11-06T00:57:47.306Z,0.00
2017-11-06T00:58:47.290Z,0.00
2017-11-06T00:59:47.292Z,0.00
2017-11-06T01:00:47.272Z,0.00
2017-11-06T01:01:47.261Z,0.00
2017-11-06T01:02:47.248Z,0.00
2017-11-06T01:03:47.233Z,0.00
2017-11-06T01:04:47.222Z,0.00
2017-11-06T01:05:47.211Z,0.00
2017-11-06T01:06:47.197Z,0.00
2017-11-06T01:07:47.187Z,0.00
2017-11-06T01:08:47.170Z,0.00
2017-11-06T01:09:47.152Z,0.00
2017-11-06T01:10:47.143Z,0.00
2017-11-06T01:11:47.126Z,0.00
2017-11-06T01:12:47.122Z,0.00
2017-11-06T01:13:47.105Z,0.00
2017-11-06T01:14:47.098Z,0.00
2017-11-06T01:15:47.082Z,0.00
2017-11-06T01:16:47.072Z,0.00
2017-11-06T01:17:47.060Z,0.00
2017-11-06T01:18:47.056Z,0.00
2017-11-06T01:19:47.055Z,0.00
2017-11-06T01:20:47.029Z,0.00
2017-11-06T01:21:47.002Z,0.00
2017-11-06T01:22:46.990Z,0.00
2017-11-06T01:23:46.982Z,0.00
2017-11-06T01:24:46.969Z,0.00
2017-11-06T01:25:46.985Z,0.00
2017-11-06T01:26:46.948Z,0.00
2017-11-06T01:27:46.932Z,0.00
2017-11-06T01:28:46.924Z,0.00
2017-11-06T01:29:46.911Z,0.00
2017-11-06T01:30:46.902Z,0.00
2017-11-06T01:31:46.884Z,0.00
2017-11-06T01:32:46.878Z,0.00
2017-11-06T01:33:47.750Z,0.00
2017-11-06T01:34:46.852Z,0.00
2017-11-06T01:35:46.836Z,0.00
2017-11-06T01:36:46.818Z,0.00
2017-11-06T01:37:46.811Z,0.00
2017-11-06T01:38:46.796Z,0.00
2017-11-06T01:39:46.779Z,0.00
2017-11-06T01:40:47.748Z,0.00
2017-11-06T01:41:46.750Z,0.00
2017-11-06T01:42:46.747Z,0.00
2017-11-06T01:43:46.730Z,0.00
2017-11-06T01:44:46.720Z,0.00
2017-11-06T01:45:46.703Z,0.00
2017-11-06T01:46:46.690Z,0.00
2017-11-06T01:47:46.686Z,0.00
2017-11-06T01:48:46.667Z,0.00
2017-11-06T01:49:46.656Z,0.00
2017-11-06T01:50:46.639Z,0.00
2017-11-06T01:51:46.623Z,0.00
2017-11-06T01:52:46.617Z,0.00
2017-11-06T01:53:47.245Z,0.00
2017-11-06T01:54:47.268Z,0.00
2017-11-06T01:55:46.574Z,0.00
2017-11-06T01:56:46.564Z,0.00
2017-11-06T01:57:46.559Z,0.00
2017-11-06T01:58:47.251Z,0.00
2017-11-06T01:59:46.527Z,0.00
2017-11-06T02:00:46.514Z,0.00
2017-11-06T02:01:46.502Z,0.00
2017-11-06T02:02:46.484Z,0.00
2017-11-06T02:03:46.472Z,0.00
2017-11-06T02:04:46.465Z,0.00
2017-11-06T02:05:46.447Z,0.00
2017-11-06T02:06:46.437Z,0.00
2017-11-06T02:07:46.423Z,0.00
2017-11-06T02:08:46.408Z,0.00
2017-11-06T02:09:46.396Z,0.00
2017-11-06T02:10:46.397Z,0.00
2017-11-06T02:11:46.375Z,0.00
2017-11-06T02:12:46.368Z,0.00
2017-11-06T02:13:47.259Z,0.00
2017-11-06T02:14:46.343Z,0.00
2017-11-06T02:15:46.333Z,0.00
2017-11-06T02:16:46.316Z,0.00
2017-11-06T02:17:46.312Z,0.00
2017-11-06T02:18:46.290Z,0.00
2017-11-06T02:19:46.275Z,0.00
2017-11-06T02:20:47.255Z,0.00
2017-11-06T02:21:46.246Z,0.00
2017-11-06T02:22:46.243Z,0.00
2017-11-06T02:23:46.227Z,0.00
2017-11-06T02:24:46.208Z,0.00
2017-11-06T02:25:46.201Z,0.00
2017-11-06T02:26:46.188Z,0.00
2017-11-06T02:27:46.178Z,0.00
2017-11-06T02:28:46.175Z,0.00
2017-11-06T02:29:46.156Z,0.00
2017-11-06T02:30:46.152Z,0.00
2017-11-06T02:31:46.132Z,0.00
2017-11-06T02:32:46.123Z,0.00
2017-11-06T02:33:46.104Z,0.00
2017-11-06T02:34:46.096Z,0.00
2017-11-06T02:35:46.083Z,0.00
2017-11-06T02:36:46.077Z,0.00
2017-11-06T02:37:46.059Z,0.00
2017-11-06T02:38:46.045Z,0.00
2017-11-06T02:39:46.033Z,0.00
2017-11-06T02:40:46.023Z,0.00
2017-11-06T02:41:46.765Z,0.00
2017-11-06T02:42:45.999Z,0.00
2017-11-06T02:43:45.992Z,0.00
2017-11-06T02:44:45.984Z,0.00
2017-11-06T02:45:45.962Z,0.00
2017-11-06T02:46:45.951Z,0.00
2017-11-06T02:47:46.770Z,0.00
2017-11-06T02:48:45.930Z,0.00
2017-11-06T02:49:45.918Z,0.00
2017-11-06T02:50:45.904Z,0.00
2017-11-06T02:51:45.893Z,0.00
2017-11-06T02:52:45.880Z,0.00
2017-11-06T02:53:46.770Z,0.00
2017-11-06T02:54:45.853Z,0.00
2017-11-06T02:55:46.762Z,0.00
2017-11-06T02:56:45.832Z,0.00
2017-11-06T02:57:45.821Z,0.00
2017-11-06T02:58:45.809Z,0.00
2017-11-06T02:59:45.815Z,0.00
2017-11-06T03:00:45.793Z,0.00
2017-11-06T03:01:45.777Z,0.00
2017-11-06T03:02:45.763Z,0.00
2017-11-06T03:03:45.760Z,0.00
2017-11-06T03:04:45.733Z,0.00
2017-11-06T03:05:46.270Z,0.00
2017-11-06T03:06:45.712Z,0.00
2017-11-06T03:07:45.703Z,0.00
2017-11-06T03:08:45.694Z,0.00
2017-11-06T03:09:45.678Z,0.00
2017-11-06T03:10:45.665Z,0.00
2017-11-06T03:11:45.655Z,0.00
2017-11-06T03:12:45.644Z,0.00
2017-11-06T03:13:45.632Z,0.00
2017-11-06T03:14:45.623Z,0.00
2017-11-06T03:15:45.624Z,0.00
2017-11-06T03:16:45.590Z,0.00
2017-11-06T03:17:45.580Z,0.00
2017-11-06T03:18:45.571Z,0.00
2017-11-06T03:19:45.557Z,0.00
2017-11-06T03:20:45.551Z,0.00
2017-11-06T03:21:46.277Z,0.00
2017-11-06T03:22:45.525Z,0.00
2017-11-06T03:23:45.514Z,0.00
2017-11-06T03:24:45.503Z,0.00
2017-11-06T03:25:45.496Z,0.00
2017-11-06T03:26:45.480Z,0.00
2017-11-06T03:27:45.469Z,0.00
2017-11-06T03:28:45.455Z,0.00
2017-11-06T03:29:45.442Z,0.00
2017-11-06T03:30:45.433Z,0.00
2017-11-06T03:31:45.420Z,0.00
2017-11-06T03:32:45.401Z,0.00
2017-11-06T03:33:45.398Z,0.00
2017-11-06T03:34:45.380Z,0.00
2017-11-06T03:35:45.371Z,0.00
2017-11-06T03:36:45.358Z,0.00
2017-11-06T03:37:45.347Z,0.00
2017-11-06T03:38:45.335Z,0.00
2017-11-06T03:39:45.321Z,0.00
2017-11-06T03:40:45.321Z,0.00
2017-11-06T03:41:45.316Z,0.00
2017-11-06T03:42:45.291Z,0.00
2017-11-06T03:43:45.273Z,0.00
2017-11-06T03:44:45.264Z,0.00
2017-11-06T03:45:45.254Z,0.00
2017-11-06T03:46:45.249Z,0.00
2017-11-06T03:47:45.230Z,0.00
2017-11-06T03:48:45.219Z,0.00
2017-11-06T03:49:45.230Z,0.00
2017-11-06T03:50:45.201Z,0.00
2017-11-06T03:51:45.187Z,0.00
2017-11-06T03:52:45.221Z,0.00
2017-11-06T03:53:45.156Z,0.00
2017-11-06T03:54:45.148Z,0.00
2017-11-06T03:55:45.143Z,0.00
2017-11-06T03:56:45.131Z,0.00
2017-11-06T03:57:45.788Z,0.00
2017-11-06T03:58:45.112Z,0.00
2017-11-06T03:59:45.790Z,0.00
2017-11-06T04:00:45.083Z,0.00
2017-11-06T04:01:45.072Z,0.00
2017-11-06T04:02:45.057Z,0.00
2017-11-06T04:03:45.048Z,0.00
2017-11-06T04:04:45.034Z,0.00
2017-11-06T04:05:45.023Z,0.00
2017-11-06T04:06:45.015Z,0.00
2017-11-06T04:07:45.000Z,0.00
2017-11-06T04:08:44.985Z,0.00
2017-11-06T04:09:44.970Z,0.00
2017-11-06T04:10:44.968Z,0.00
2017-11-06T04:11:44.964Z,0.00
2017-11-06T04:12:44.949Z,0.00
2017-11-06T04:13:44.934Z,0.00
2017-11-06T04:14:44.925Z,0.00
2017-11-06T04:15:44.917Z,0.00
2017-11-06T04:16:44.901Z,0.00
2017-11-06T04:17:45.803Z,0.00
2017-11-06T04:18:44.880Z,0.00
2017-11-06T04:19:44.864Z,0.00
2017-11-06T04:20:44.862Z,0.00
2017-11-06T04:21:44.836Z,0.00
2017-11-06T04:22:44.830Z,0.00
2017-11-06T04:23:44.818Z,0.00
2017-11-06T04:24:44.808Z,0.00
2017-11-06T04:25:45.289Z,0.00
2017-11-06T04:26:44.784Z,0.00
2017-11-06T04:27:44.779Z,0.00
2017-11-06T04:28:45.307Z,0.00
2017-11-06T04:29:44.756Z,0.00
2017-11-06T04:30:44.743Z,0.00
2017-11-06T04:31:45.330Z,0.00
2017-11-06T04:32:44.722Z,0.00
2017-11-06T04:33:44.707Z,0.00
2017-11-06T04:34:44.698Z,0.00
2017-11-06T04:35:44.688Z,0.00
2017-11-06T04:36:45.300Z,0.00
2017-11-06T04:37:44.665Z,0.00
2017-11-06T04:38:44.646Z,0.00
2017-11-06T04:39:44.643Z,0.00
2017-11-06T04:40:44.625Z,0.00
2017-11-06T04:41:44.616Z,0.00
2017-11-06T04:42:44.608Z,0.00
2017-11-06T04:43:44.599Z,0.00
2017-11-06T04:44:44.587Z,0.00
2017-11-06T04:45:44.578Z,0.00
2017-11-06T04:46:44.587Z,0.00
2017-11-06T04:47:44.556Z,0.00
2017-11-06T04:48:44.544Z,0.00
2017-11-06T04:49:44.524Z,0.00
2017-11-06T04:50:44.514Z,0.00
2017-11-06T04:51:44.502Z,0.00
2017-11-06T04:52:44.495Z,0.00
2017-11-06T04:53:44.482Z,0.00
2017-11-06T04:54:44.471Z,0.00
2017-11-06T04:55:44.463Z,0.00
2017-11-06T04:56:44.449Z,0.00
2017-11-06T04:57:44.439Z,0.00
2017-11-06T04:58:44.428Z,0.00
2017-11-06T04:59:44.418Z,0.00
2017-11-06T05:00:44.409Z,0.00
2017-11-06T05:01:44.400Z,0.00
2017-11-06T05:02:44.387Z,0.00
2017-11-06T05:03:44.377Z,0.00
2017-11-06T05:04:44.362Z,0.00
2017-11-06T05:05:44.354Z,0.00
2017-11-06T05:06:44.341Z,0.00
2017-11-06T05:07:45.301Z,0.00
2017-11-06T05:08:44.316Z,0.00
2017-11-06T05:09:44.305Z,0.00
2017-11-06T05:10:44.295Z,0.00
2017-11-06T05:11:44.288Z,0.00
2017-11-06T05:12:44.276Z,0.00
2017-11-06T05:13:44.261Z,0.00
2017-11-06T05:14:44.255Z,0.00
2017-11-06T05:15:44.241Z,0.00
2017-11-06T05:16:44.229Z,0.00
2017-11-06T05:17:44.219Z,0.00
2017-11-06T05:18:44.212Z,0.00
2017-11-06T05:19:44.196Z,0.00
2017-11-06T05:20:44.186Z,0.00
2017-11-06T05:21:44.174Z,0.00
2017-11-06T05:22:44.164Z,0.00
2017-11-06T05:23:44.161Z,0.00
2017-11-06T05:24:44.161Z,0.00
2017-11-06T05:25:44.136Z,0.00
2017-11-06T05:26:44.129Z,0.00
2017-11-06T05:27:44.814Z,0.00
2017-11-06T05:28:44.102Z,0.00
2017-11-06T05:29:44.093Z,0.00
2017-11-06T05:30:44.091Z,0.00
2017-11-06T05:31:44.064Z,0.00
2017-11-06T05:32:44.055Z,0.00
2017-11-06T05:33:44.046Z,0.00
2017-11-06T05:34:44.036Z,0.00
2017-11-06T05:35:44.029Z,0.00
2017-11-06T05:36:44.017Z,0.00
2017-11-06T05:37:43.997Z,0.00
2017-11-06T05:38:44.003Z,0.00
2017-11-06T05:39:44.008Z,0.00
2017-11-06T05:40:46.822Z,0.00
2017-11-06T05:41:43.965Z,0.00
2017-11-06T05:42:43.953Z,0.00
2017-11-06T05:43:43.942Z,0.00
2017-11-06T05:44:43.930Z,0.00
2017-11-06T05:45:43.932Z,0.00
2017-11-06T05:46:43.908Z,0.00
2017-11-06T05:47:43.893Z,0.00
2017-11-06T05:48:43.885Z,0.00
2017-11-06T05:49:43.867Z,0.00
2017-11-06T05:50:43.872Z,0.00
2017-11-06T05:51:43.851Z,0.00
2017-11-06T05:52:43.848Z,0.00
2017-11-06T05:53:43.834Z,0.00
2017-11-06T05:54:43.819Z,0.00
2017-11-06T05:55:43.804Z,0.00
2017-11-06T05:56:43.796Z,0.00
2017-11-06T05:57:43.788Z,0.00
2017-11-06T05:58:43.774Z,0.00
2017-11-06T05:59:43.773Z,0.00
2017-11-06T06:00:43.757Z,0.00
2017-11-06T06:01:43.748Z,0.00
2017-11-06T06:02:43.735Z,0.00
2017-11-06T06:03:43.722Z,0.00
2017-11-06T06:04:43.703Z,0.00
2017-11-06T06:05:43.701Z,0.00
2017-11-06T06:06:43.710Z,0.00
2017-11-06T06:07:44.326Z,0.00
2017-11-06T06:08:43.673Z,0.00
2017-11-06T06:09:43.661Z,0.00
2017-11-06T06:10:44.334Z,0.00
2017-11-06T06:11:43.642Z,0.00
2017-11-06T06:12:43.629Z,0.00
2017-11-06T06:13:46.340Z,0.00
2017-11-06T06:14:43.606Z,0.00
2017-11-06T06:15:43.596Z,0.00
2017-11-06T06:16:43.579Z,0.00
2017-11-06T06:17:44.338Z,0.00
2017-11-06T06:18:44.334Z,0.00
2017-11-06T06:19:43.556Z,0.00
2017-11-06T06:20:43.542Z,0.00
2017-11-06T06:21:43.528Z,0.00
2017-11-06T06:22:43.524Z,0.00
2017-11-06T06:23:43.516Z,0.00
2017-11-06T06:24:43.517Z,0.00
2017-11-06T06:25:43.493Z,0.00
2017-11-06T06:26:43.477Z,0.00
2017-11-06T06:27:43.468Z,0.00
2017-11-06T06:28:43.457Z,0.00
2017-11-06T06:29:43.448Z,0.00
2017-11-06T06:30:44.339Z,0.00
2017-11-06T06:31:43.435Z,0.00
2017-11-06T06:32:43.414Z,0.00
2017-11-06T06:33:43.407Z,0.00
2017-11-06T06:34:43.404Z,0.00
2017-11-06T06:35:43.392Z,0.00
2017-11-06T06:36:44.347Z,0.00
2017-11-06T06:37:43.365Z,0.00
2017-11-06T06:38:43.356Z,0.00
2017-11-06T06:39:43.342Z,0.00
2017-11-06T06:40:43.336Z,0.00
2017-11-06T06:41:43.324Z,0.00
2017-11-06T06:42:43.314Z,0.00
2017-11-06T06:43:43.302Z,0.00
2017-11-06T06:44:43.293Z,0.00
2017-11-06T06:45:43.280Z,0.00
2017-11-06T06:46:43.269Z,5.63
2017-11-06T06:47:43.259Z,5.63
2017-11-06T06:48:43.250Z,5.63
2017-11-06T06:49:43.250Z,5.63
2017-11-06T06:50:43.265Z,5.63
2017-11-06T06:51:43.222Z,5.63
2017-11-06T06:52:43.213Z,5.63
2017-11-06T06:53:43.200Z,5.63
2017-11-06T06:54:43.195Z,5.63
2017-11-06T06:55:43.855Z,5.63
2017-11-06T06:56:43.163Z,5.63
2017-11-06T06:57:43.154Z,5.63
2017-11-06T06:58:43.150Z,5.63
2017-11-06T06:59:43.137Z,5.63
2017-11-06T07:00:43.128Z,5.63
2017-11-06T07:01:43.116Z,5.63
2017-11-06T07:02:43.850Z,5.63
2017-11-06T07:03:43.093Z,5.63
2017-11-06T07:04:43.428Z,5.63
2017-11-06T07:05:43.068Z,5.63
2017-11-06T07:06:43.068Z,5.63
2017-11-06T07:07:43.061Z,5.63
2017-11-06T07:08:43.049Z,5.63
2017-11-06T07:09:43.036Z,5.63
2017-11-06T07:10:43.029Z,5.63
2017-11-06T07:11:43.021Z,5.63
2017-11-06T07:12:43.003Z,11.25
2017-11-06T07:13:42.999Z,11.25
2017-11-06T07:14:42.990Z,11.25
2017-11-06T07:15:43.852Z,11.25
2017-11-06T07:16:42.964Z,11.25
2017-11-06T07:17:42.959Z,11.25
2017-11-06T07:18:42.945Z,11.25
2017-11-06T07:19:42.930Z,11.25
2017-11-06T07:20:43.856Z,11.25
2017-11-06T07:21:42.918Z,16.88
2017-11-06T07:22:43.856Z,16.88
2017-11-06T07:23:42.897Z,11.25
2017-11-06T07:24:42.884Z,11.25
2017-11-06T07:25:42.875Z,11.25
2017-11-06T07:26:42.863Z,11.25
2017-11-06T07:27:42.854Z,11.25
2017-11-06T07:28:42.843Z,11.25
2017-11-06T07:29:42.836Z,16.88
2017-11-06T07:30:42.822Z,22.50
2017-11-06T07:31:42.816Z,22.50
2017-11-06T07:32:42.810Z,22.50
2017-11-06T07:33:42.799Z,22.50
2017-11-06T07:34:42.780Z,16.88
2017-11-06T07:35:42.778Z,16.88
2017-11-06T07:36:42.761Z,16.88
2017-11-06T07:37:42.757Z,22.50
2017-11-06T07:38:42.750Z,28.13
2017-11-06T07:39:42.733Z,22.50
2017-11-06T07:40:42.728Z,28.13
2017-11-06T07:41:42.715Z,39.38
2017-11-06T07:42:42.704Z,50.63
2017-11-06T07:43:42.696Z,61.88
2017-11-06T07:44:42.687Z,61.88
2017-11-06T07:45:42.675Z,61.88
2017-11-06T07:46:42.664Z,56.25
2017-11-06T07:47:42.654Z,50.63
2017-11-06T07:48:42.653Z,56.25
2017-11-06T07:49:42.636Z,67.50
2017-11-06T07:50:43.365Z,78.75
2017-11-06T07:51:42.624Z,84.38
2017-11-06T07:52:42.618Z,67.50
2017-11-06T07:53:42.594Z,56.25
2017-11-06T07:54:42.590Z,45.00
2017-11-06T07:55:42.581Z,45.00
2017-11-06T07:56:42.575Z,50.63
2017-11-06T07:57:42.557Z,56.25
2017-11-06T07:58:43.368Z,61.88
2017-11-06T07:59:42.541Z,61.88
2017-11-06T08:00:42.530Z,56.25
2017-11-06T08:01:42.523Z,50.63
2017-11-06T08:02:42.514Z,67.50
2017-11-06T08:03:42.507Z,67.50
2017-11-06T08:04:42.504Z,45.00
2017-11-06T08:05:42.485Z,33.75
2017-11-06T08:06:42.481Z,33.75
2017-11-06T08:07:42.468Z,33.75
2017-11-06T08:08:43.379Z,39.38
2017-11-06T08:09:43.374Z,45.00
2017-11-06T08:10:42.440Z,45.00
2017-11-06T08:11:42.446Z,39.38
2017-11-06T08:12:42.414Z,45.00
2017-11-06T08:13:42.411Z,50.63
2017-11-06T08:14:42.397Z,56.25
2017-11-06T08:15:42.390Z,56.25
2017-11-06T08:16:42.395Z,50.63
2017-11-06T08:17:42.371Z,45.00
2017-11-06T08:18:42.368Z,45.00
2017-11-06T08:19:42.356Z,33.75
2017-11-06T08:20:42.340Z,28.13
2017-11-06T08:21:42.359Z,28.13
2017-11-06T08:22:42.328Z,22.50
2017-11-06T08:23:42.313Z,22.50
2017-11-06T08:24:42.304Z,33.75
2017-11-06T08:25:42.292Z,39.38
2017-11-06T08:26:42.286Z,45.00
2017-11-06T08:27:42.268Z,39.38
2017-11-06T08:28:42.270Z,33.75
2017-11-06T08:29:42.272Z,39.38
2017-11-06T08:30:42.255Z,39.38
2017-11-06T08:31:42.243Z,45.00
2017-11-06T08:32:42.228Z,50.63
2017-11-06T08:33:42.219Z,56.25
2017-11-06T08:34:42.223Z,67.50
2017-11-06T08:35:42.200Z,67.50
2017-11-06T08:36:42.190Z,61.88
2017-11-06T08:37:42.183Z,61.88
2017-11-06T08:38:42.172Z,73.13
2017-11-06T08:39:42.161Z,101.25
2017-11-06T08:40:42.152Z,112.50
2017-11-06T08:41:42.144Z,101.25
2017-11-06T08:42:42.132Z,90.00
2017-11-06T08:43:42.127Z,84.38
2017-11-06T08:44:42.118Z,90.00
2017-11-06T08:45:42.109Z,84.38
2017-11-06T08:46:42.102Z,78.75
2017-11-06T08:47:42.888Z,73.13
2017-11-06T08:48:42.080Z,67.50
2017-11-06T08:49:42.889Z,61.88
2017-11-06T08:50:42.065Z,61.88
2017-11-06T08:51:42.052Z,61.88
2017-11-06T08:52:42.042Z,50.63
2017-11-06T08:53:42.889Z,50.63
2017-11-06T08:54:42.014Z,61.88
2017-11-06T08:55:42.016Z,67.50
2017-11-06T08:56:42.000Z,84.38
2017-11-06T08:57:42.005Z,84.38
2017-11-06T08:58:41.984Z,78.75
2017-11-06T08:59:41.989Z,73.13
2017-11-06T09:00:41.969Z,73.13
2017-11-06T09:01:41.960Z,67.50
2017-11-06T09:02:41.958Z,73.13
2017-11-06T09:03:41.943Z,90.00
2017-11-06T09:04:41.935Z,90.00
2017-11-06T09:05:41.923Z,84.38
2017-11-06T09:06:41.911Z,73.13
2017-11-06T09:07:41.902Z,61.88
2017-11-06T09:08:41.905Z,67.50
2017-11-06T09:09:42.394Z,67.50
2017-11-06T09:10:41.888Z,73.13
2017-11-06T09:11:41.870Z,73.13
2017-11-06T09:12:41.860Z,73.13
2017-11-06T09:13:42.400Z,73.13
2017-11-06T09:14:41.843Z,90.00
2017-11-06T09:15:41.842Z,123.75
2017-11-06T09:16:41.826Z,112.50
2017-11-06T09:17:41.819Z,129.38
2017-11-06T09:18:41.803Z,174.38
2017-11-06T09:19:41.790Z,202.50
2017-11-06T09:20:41.787Z,163.13
2017-11-06T09:21:41.779Z,151.88
2017-11-06T09:22:41.772Z,180.00
2017-11-06T09:23:41.759Z,140.63
2017-11-06T09:24:41.750Z,101.25
2017-11-06T09:25:41.741Z,106.88
2017-11-06T09:26:41.735Z,129.38
2017-11-06T09:27:41.729Z,168.75
2017-11-06T09:28:41.718Z,196.88
2017-11-06T09:29:41.714Z,213.75
2017-11-06T09:30:41.693Z,174.38
2017-11-06T09:31:41.690Z,185.63
2017-11-06T09:32:41.688Z,180.00
2017-11-06T09:33:41.673Z,163.13
2017-11-06T09:34:41.673Z,157.50
2017-11-06T09:35:41.657Z,146.25
2017-11-06T09:36:41.655Z,135.00
2017-11-06T09:37:41.641Z,118.13
2017-11-06T09:38:41.633Z,95.63
2017-11-06T09:39:41.629Z,84.38
2017-11-06T09:40:41.615Z,84.38
2017-11-06T09:41:41.611Z,90.00
2017-11-06T09:42:41.615Z,95.63
2017-11-06T09:43:41.595Z,95.63
2017-11-06T09:44:41.580Z,95.63
2017-11-06T09:45:41.582Z,95.63
2017-11-06T09:46:41.571Z,84.38
2017-11-06T09:47:41.557Z,78.75
2017-11-06T09:48:41.553Z,73.13
2017-11-06T09:49:41.543Z,67.50
2017-11-06T09:50:41.536Z,78.75
2017-11-06T09:51:41.532Z,90.00
2017-11-06T09:52:41.521Z,78.75
2017-11-06T09:53:41.508Z,90.00
2017-11-06T09:54:41.508Z,106.88
2017-11-06T09:55:41.493Z,112.50
2017-11-06T09:56:41.485Z,112.50
2017-11-06T09:57:41.478Z,123.75
2017-11-06T09:58:41.472Z,123.75
2017-11-06T09:59:41.468Z,123.75
2017-11-06T10:00:41.457Z,106.88
2017-11-06T10:01:41.447Z,106.88
2017-11-06T10:02:41.434Z,151.88
2017-11-06T10:03:41.427Z,151.88
2017-11-06T10:04:41.419Z,112.50
2017-11-06T10:05:41.408Z,84.38
2017-11-06T10:06:41.403Z,84.38
2017-11-06T10:07:41.396Z,112.50
2017-11-06T10:08:41.382Z,140.63
2017-11-06T10:09:41.381Z,123.75
2017-11-06T10:10:41.368Z,118.13
2017-11-06T10:11:41.361Z,146.25
2017-11-06T10:12:41.355Z,146.25
2017-11-06T10:13:41.352Z,140.63
2017-11-06T10:14:41.339Z,168.75
2017-11-06T10:15:41.330Z,163.13
2017-11-06T10:16:41.330Z,146.25
2017-11-06T10:17:41.315Z,129.38
2017-11-06T10:18:41.299Z,95.63
2017-11-06T10:19:41.293Z,78.75
2017-11-06T10:20:41.284Z,78.75
2017-11-06T10:21:41.274Z,84.38
2017-11-06T10:22:41.274Z,95.63
2017-11-06T10:23:41.253Z,123.75
2017-11-06T10:24:41.250Z,135.00
2017-11-06T10:25:41.241Z,129.38
2017-11-06T10:26:41.246Z,129.38
2017-11-06T10:27:41.233Z,146.25
2017-11-06T10:28:41.230Z,174.38
2017-11-06T10:29:41.923Z,185.63
2017-11-06T10:30:41.202Z,140.63
2017-11-06T10:31:41.195Z,106.88
2017-11-06T10:32:41.185Z,101.25
2017-11-06T10:33:41.179Z,112.50
2017-11-06T10:34:41.173Z,140.63
2017-11-06T10:35:41.171Z,174.38
2017-11-06T10:36:41.154Z,168.75
2017-11-06T10:37:41.152Z,157.50
2017-11-06T10:38:41.140Z,196.88
2017-11-06T10:39:41.130Z,219.38
2017-11-06T10:40:41.120Z,168.75
2017-11-06T10:41:41.114Z,151.88
2017-11-06T10:42:41.107Z,146.25
2017-11-06T10:43:41.095Z,146.25
2017-11-06T10:44:41.080Z,157.50
2017-11-06T10:45:41.084Z,174.38
2017-11-06T10:46:41.078Z,202.50
2017-11-06T10:47:41.064Z,225.00
2017-11-06T10:48:41.051Z,225.00
2017-11-06T10:49:41.046Z,208.13
2017-11-06T10:50:41.041Z,191.25
2017-11-06T10:51:41.036Z,180.00
2017-11-06T10:52:41.026Z,168.75
2017-11-06T10:53:41.019Z,157.50
2017-11-06T10:54:41.022Z,151.88
2017-11-06T10:55:41.006Z,157.50
2017-11-06T10:56:41.003Z,146.25
2017-11-06T10:57:40.990Z,140.63
2017-11-06T10:58:40.983Z,129.38
2017-11-06T10:59:40.975Z,123.75
2017-11-06T11:00:40.963Z,112.50
2017-11-06T11:01:40.960Z,118.13
2017-11-06T11:02:41.934Z,118.13
2017-11-06T11:03:40.942Z,118.13
2017-11-06T11:04:40.944Z,129.38
2017-11-06T11:05:40.934Z,129.38
2017-11-06T11:06:40.926Z,157.50
2017-11-06T11:07:40.912Z,163.13
2017-11-06T11:08:40.909Z,140.63
2017-11-06T11:09:40.902Z,118.13
2017-11-06T11:10:40.894Z,95.63
2017-11-06T11:11:40.882Z,90.00
2017-11-06T11:12:40.878Z,112.50
2017-11-06T11:13:40.870Z,140.63
2017-11-06T11:14:40.857Z,151.88
2017-11-06T11:15:40.854Z,146.25
2017-11-06T11:16:40.847Z,112.50
2017-11-06T11:17:40.842Z,112.50
2017-11-06T11:18:40.832Z,106.88
2017-11-06T11:19:40.821Z,118.13
2017-11-06T11:20:40.813Z,157.50
2017-11-06T11:21:40.802Z,174.38
2017-11-06T11:22:40.799Z,151.88
2017-11-06T11:23:41.448Z,157.50
2017-11-06T11:24:40.787Z,157.50
2017-11-06T11:25:40.783Z,163.13
2017-11-06T11:26:40.780Z,185.63
2017-11-06T11:27:40.767Z,180.00
2017-11-06T11:28:40.760Z,168.75
2017-11-06T11:29:40.754Z,146.25
2017-11-06T11:30:40.745Z,118.13
2017-11-06T11:31:40.734Z,112.50
2017-11-06T11:32:40.729Z,129.38
2017-11-06T11:33:40.719Z,135.00
2017-11-06T11:34:40.713Z,123.75
2017-11-06T11:35:40.715Z,123.75
2017-11-06T11:36:40.703Z,135.00
2017-11-06T11:37:40.695Z,146.25
2017-11-06T11:38:40.685Z,163.13
2017-11-06T11:39:40.683Z,168.75
2017-11-06T11:40:40.672Z,174.38
2017-11-06T11:41:40.665Z,180.00
2017-11-06T11:42:40.655Z,180.00
2017-11-06T11:43:40.652Z,168.75
2017-11-06T11:44:40.639Z,163.13
2017-11-06T11:45:40.636Z,151.88
2017-11-06T11:46:40.634Z,118.13
2017-11-06T11:47:40.624Z,90.00
2017-11-06T11:48:40.616Z,84.38
2017-11-06T11:49:40.616Z,84.38
2017-11-06T11:50:40.590Z,73.13
2017-11-06T11:51:40.593Z,56.25
2017-11-06T11:52:40.593Z,45.00
2017-11-06T11:53:41.456Z,45.00
2017-11-06T11:54:40.573Z,50.63
2017-11-06T11:55:40.576Z,61.88
2017-11-06T11:56:40.553Z,84.38
2017-11-06T11:57:40.545Z,90.00
2017-11-06T11:58:40.538Z,95.63
2017-11-06T11:59:40.537Z,84.38
2017-11-06T12:00:40.524Z,73.13
2017-11-06T12:01:40.518Z,73.13
2017-11-06T12:02:40.506Z,84.38
2017-11-06T12:03:40.505Z,90.00
2017-11-06T12:04:40.503Z,95.63
2017-11-06T12:05:40.482Z,95.63
2017-11-06T12:06:40.490Z,90.00
2017-11-06T12:07:40.476Z,90.00
2017-11-06T12:08:40.470Z,78.75
2017-11-06T12:09:40.461Z,61.88
2017-11-06T12:10:40.452Z,56.25
2017-11-06T12:11:40.441Z,50.63
2017-11-06T12:12:40.437Z,45.00
2017-11-06T12:13:40.421Z,50.63
2017-11-06T12:14:40.966Z,61.88
2017-11-06T12:15:40.423Z,84.38
2017-11-06T12:16:40.412Z,95.63
2017-11-06T12:17:40.402Z,106.88
2017-11-06T12:18:40.392Z,118.13
2017-11-06T12:19:40.382Z,129.38
2017-11-06T12:20:40.380Z,129.38
2017-11-06T12:21:40.370Z,123.75
2017-11-06T12:22:40.383Z,118.13
2017-11-06T12:23:40.366Z,101.25
2017-11-06T12:24:40.347Z,84.38
2017-11-06T12:25:40.339Z,78.75
2017-11-06T12:26:40.340Z,84.38
2017-11-06T12:27:40.324Z,90.00
2017-11-06T12:28:40.319Z,95.63
2017-11-06T12:29:40.301Z,95.63
2017-11-06T12:30:40.292Z,101.25
2017-11-06T12:31:40.291Z,106.88
2017-11-06T12:32:40.277Z,118.13
2017-11-06T12:33:40.278Z,123.75
2017-11-06T12:34:40.282Z,129.38
2017-11-06T12:35:40.265Z,123.75
2017-11-06T12:36:40.258Z,112.50
2017-11-06T12:37:40.248Z,106.88
2017-11-06T12:38:40.258Z,106.88
2017-11-06T12:39:40.235Z,112.50
2017-11-06T12:40:40.222Z,118.13
2017-11-06T12:41:40.216Z,112.50
2017-11-06T12:42:40.211Z,112.50
2017-11-06T12:43:40.200Z,112.50
2017-11-06T12:44:40.194Z,106.88
2017-11-06T12:45:40.185Z,106.88
2017-11-06T12:46:40.176Z,106.88
2017-11-06T12:47:40.168Z,106.88
2017-11-06T12:48:40.161Z,112.50
2017-11-06T12:49:40.151Z,112.50
2017-11-06T12:50:40.143Z,112.50
2017-11-06T12:51:40.136Z,118.13
2017-11-06T12:52:40.129Z,112.50
2017-11-06T12:53:40.123Z,118.13
2017-11-06T12:54:40.107Z,118.13
2017-11-06T12:55:40.107Z,118.13
2017-11-06T12:56:40.105Z,118.13
2017-11-06T12:57:40.085Z,118.13
2017-11-06T12:58:40.091Z,118.13
2017-11-06T12:59:40.074Z,112.50
2017-11-06T13:00:40.069Z,106.88
2017-11-06T13:01:40.053Z,101.25